sensor_id;sensor_type;location;lat;lon;timestamp;P1;durP1;ratioP1;P2;durP2;ratioP2
26034;SDS011;13809;48.632;11.576;2022-07-05T00:01:50;3.17;;;2.97;;
26034;SDS011;13809;48.632;11.576;2022-07-05T00:06:53;3.20;;;2.90;;
26034;SDS011;13809;48.632;11.576;2022-07-05T00:12:14;3.30;;;2.70;;
26034;SDS011;13809;48.632;11.576;2022-07-05T00:17:22;2.70;;;2.50;;
26034;SDS011;13809;48.632;11.576;2022-07-05T00:22:26;3.07;;;2.73;;
26034;SDS011;13809;48.632;11.576;2022-07-05T00:27:30;2.97;;;2.67;;
26034;SDS011;13809;48.632;11.576;2022-07-05T00:32:35;2.80;;;2.60;;
26034;SDS011;13809;48.632;11.576;2022-07-05T00:37:39;2.73;;;2.53;;
26034;SDS011;13809;48.632;11.576;2022-07-05T00:42:42;2.77;;;2.63;;
26034;SDS011;13809;48.632;11.576;2022-07-05T00:47:47;3.23;;;2.87;;
26034;SDS011;13809;48.632;11.576;2022-07-05T00:52:52;3.27;;;2.97;;
26034;SDS011;13809;48.632;11.576;2022-07-05T00:57:57;4.57;;;3.40;;
26034;SDS011;13809;48.632;11.576;2022-07-05T01:03:01;3.40;;;2.70;;
26034;SDS011;13809;48.632;11.576;2022-07-05T01:08:06;2.97;;;2.70;;
26034;SDS011;13809;48.632;11.576;2022-07-05T01:13:09;2.50;;;2.30;;
26034;SDS011;13809;48.632;11.576;2022-07-05T01:18:14;4.07;;;2.50;;
26034;SDS011;13809;48.632;11.576;2022-07-05T01:23:19;3.33;;;2.60;;
26034;SDS011;13809;48.632;11.576;2022-07-05T01:28:24;2.83;;;2.63;;
26034;SDS011;13809;48.632;11.576;2022-07-05T01:33:28;3.53;;;3.23;;
26034;SDS011;13809;48.632;11.576;2022-07-05T01:38:33;2.80;;;2.60;;
26034;SDS011;13809;48.632;11.576;2022-07-05T01:43:38;3.17;;;2.67;;
26034;SDS011;13809;48.632;11.576;2022-07-05T01:48:41;3.53;;;2.60;;
26034;SDS011;13809;48.632;11.576;2022-07-05T01:53:46;3.60;;;3.10;;
26034;SDS011;13809;48.632;11.576;2022-07-05T01:58:54;2.97;;;2.67;;
26034;SDS011;13809;48.632;11.576;2022-07-05T02:03:58;2.80;;;2.60;;
26034;SDS011;13809;48.632;11.576;2022-07-05T02:09:03;3.10;;;2.83;;
26034;SDS011;13809;48.632;11.576;2022-07-05T02:14:08;3.00;;;2.73;;
26034;SDS011;13809;48.632;11.576;2022-07-05T02:19:13;3.00;;;2.80;;
26034;SDS011;13809;48.632;11.576;2022-07-05T02:24:17;2.73;;;2.47;;
26034;SDS011;13809;48.632;11.576;2022-07-05T02:29:21;2.90;;;2.60;;
26034;SDS011;13809;48.632;11.576;2022-07-05T02:34:25;2.67;;;2.30;;
26034;SDS011;13809;48.632;11.576;2022-07-05T02:39:29;2.77;;;2.50;;
26034;SDS011;13809;48.632;11.576;2022-07-05T02:44:32;2.87;;;2.67;;
26034;SDS011;13809;48.632;11.576;2022-07-05T02:49:36;3.00;;;2.80;;
26034;SDS011;13809;48.632;11.576;2022-07-05T02:54:41;3.33;;;2.70;;
26034;SDS011;13809;48.632;11.576;2022-07-05T02:59:45;3.33;;;3.10;;
26034;SDS011;13809;48.632;11.576;2022-07-05T03:04:48;3.27;;;3.00;;
26034;SDS011;13809;48.632;11.576;2022-07-05T03:09:53;3.40;;;2.80;;
26034;SDS011;13809;48.632;11.576;2022-07-05T03:14:56;3.10;;;2.80;;
26034;SDS011;13809;48.632;11.576;2022-07-05T03:19:59;3.57;;;3.10;;
26034;SDS011;13809;48.632;11.576;2022-07-05T03:25:04;2.90;;;2.70;;
26034;SDS011;13809;48.632;11.576;2022-07-05T03:30:08;3.10;;;2.77;;
26034;SDS011;13809;48.632;11.576;2022-07-05T03:35:13;3.13;;;2.83;;
26034;SDS011;13809;48.632;11.576;2022-07-05T03:40:17;3.40;;;3.07;;
26034;SDS011;13809;48.632;11.576;2022-07-05T03:45:21;5.20;;;3.00;;
26034;SDS011;13809;48.632;11.576;2022-07-05T03:50:24;3.20;;;2.90;;
26034;SDS011;13809;48.632;11.576;2022-07-05T03:55:29;3.07;;;2.87;;
26034;SDS011;13809;48.632;11.576;2022-07-05T04:00:32;4.77;;;3.07;;
26034;SDS011;13809;48.632;11.576;2022-07-05T04:05:36;3.20;;;2.90;;
26034;SDS011;13809;48.632;11.576;2022-07-05T04:10:42;4.13;;;3.27;;
26034;SDS011;13809;48.632;11.576;2022-07-05T04:15:45;4.23;;;3.13;;
26034;SDS011;13809;48.632;11.576;2022-07-05T04:20:48;4.80;;;3.50;;
26034;SDS011;13809;48.632;11.576;2022-07-05T04:25:53;4.10;;;3.03;;
26034;SDS011;13809;48.632;11.576;2022-07-05T04:30:56;4.97;;;3.57;;
26034;SDS011;13809;48.632;11.576;2022-07-05T04:36:00;5.33;;;3.80;;
26034;SDS011;13809;48.632;11.576;2022-07-05T04:41:04;6.33;;;3.70;;
26034;SDS011;13809;48.632;11.576;2022-07-05T04:46:08;5.17;;;3.50;;
26034;SDS011;13809;48.632;11.576;2022-07-05T04:51:11;3.97;;;3.27;;
26034;SDS011;13809;48.632;11.576;2022-07-05T04:56:15;3.77;;;3.47;;
26034;SDS011;13809;48.632;11.576;2022-07-05T05:01:19;4.00;;;3.20;;
26034;SDS011;13809;48.632;11.576;2022-07-05T05:06:22;2.87;;;2.67;;
26034;SDS011;13809;48.632;11.576;2022-07-05T05:11:26;4.67;;;3.03;;
26034;SDS011;13809;48.632;11.576;2022-07-05T05:16:30;2.53;;;2.27;;
26034;SDS011;13809;48.632;11.576;2022-07-05T05:21:33;2.70;;;2.50;;
26034;SDS011;13809;48.632;11.576;2022-07-05T05:26:38;2.80;;;2.60;;
26034;SDS011;13809;48.632;11.576;2022-07-05T05:31:41;2.40;;;2.20;;
26034;SDS011;13809;48.632;11.576;2022-07-05T05:36:44;2.30;;;2.10;;
26034;SDS011;13809;48.632;11.576;2022-07-05T05:41:49;2.40;;;2.20;;
26034;SDS011;13809;48.632;11.576;2022-07-05T05:46:52;2.67;;;2.03;;
26034;SDS011;13809;48.632;11.576;2022-07-05T05:51:55;2.40;;;2.20;;
26034;SDS011;13809;48.632;11.576;2022-07-05T05:57:00;2.27;;;2.00;;
26034;SDS011;13809;48.632;11.576;2022-07-05T06:02:03;2.13;;;2.03;;
26034;SDS011;13809;48.632;11.576;2022-07-05T06:07:07;2.20;;;1.70;;
26034;SDS011;13809;48.632;11.576;2022-07-05T06:12:11;1.67;;;1.57;;
26034;SDS011;13809;48.632;11.576;2022-07-05T06:17:15;1.53;;;1.43;;
26034;SDS011;13809;48.632;11.576;2022-07-05T06:22:18;2.10;;;1.60;;
26034;SDS011;13809;48.632;11.576;2022-07-05T06:27:23;1.70;;;1.60;;
26034;SDS011;13809;48.632;11.576;2022-07-05T06:32:32;2.47;;;1.70;;
26034;SDS011;13809;48.632;11.576;2022-07-05T06:37:42;1.70;;;1.60;;
26034;SDS011;13809;48.632;11.576;2022-07-05T06:42:47;2.10;;;1.90;;
26034;SDS011;13809;48.632;11.576;2022-07-05T06:47:54;2.10;;;1.70;;
26034;SDS011;13809;48.632;11.576;2022-07-05T06:52:58;2.20;;;1.60;;
26034;SDS011;13809;48.632;11.576;2022-07-05T06:58:03;4.47;;;1.80;;
26034;SDS011;13809;48.632;11.576;2022-07-05T07:03:14;2.17;;;1.97;;
26034;SDS011;13809;48.632;11.576;2022-07-05T07:08:38;2.57;;;1.80;;
26034;SDS011;13809;48.632;11.576;2022-07-05T07:14:00;2.87;;;1.70;;
26034;SDS011;13809;48.632;11.576;2022-07-05T07:19:03;1.90;;;1.80;;
26034;SDS011;13809;48.632;11.576;2022-07-05T07:24:15;2.13;;;1.77;;
26034;SDS011;13809;48.632;11.576;2022-07-05T07:29:20;4.00;;;2.10;;
26034;SDS011;13809;48.632;11.576;2022-07-05T07:34:23;3.17;;;1.87;;
26034;SDS011;13809;48.632;11.576;2022-07-05T07:39:27;2.07;;;1.80;;
26034;SDS011;13809;48.632;11.576;2022-07-05T07:44:30;3.47;;;1.90;;
26034;SDS011;13809;48.632;11.576;2022-07-05T07:49:34;2.07;;;1.70;;
26034;SDS011;13809;48.632;11.576;2022-07-05T07:54:37;1.80;;;1.70;;
26034;SDS011;13809;48.632;11.576;2022-07-05T07:59:42;2.07;;;1.80;;
26034;SDS011;13809;48.632;11.576;2022-07-05T08:04:45;2.00;;;1.90;;
26034;SDS011;13809;48.632;11.576;2022-07-05T08:09:50;2.23;;;2.00;;
26034;SDS011;13809;48.632;11.576;2022-07-05T08:14:55;1.80;;;1.70;;
26034;SDS011;13809;48.632;11.576;2022-07-05T08:19:58;2.73;;;2.10;;
26034;SDS011;13809;48.632;11.576;2022-07-05T08:25:19;2.47;;;1.97;;
26034;SDS011;13809;48.632;11.576;2022-07-05T08:30:23;1.90;;;1.80;;
26034;SDS011;13809;48.632;11.576;2022-07-05T08:35:27;2.50;;;1.77;;
26034;SDS011;13809;48.632;11.576;2022-07-05T08:40:30;1.80;;;1.70;;
26034;SDS011;13809;48.632;11.576;2022-07-05T08:45:40;3.17;;;1.90;;
26034;SDS011;13809;48.632;11.576;2022-07-05T08:50:46;1.93;;;1.80;;
26034;SDS011;13809;48.632;11.576;2022-07-05T08:55:58;2.67;;;1.93;;
26034;SDS011;13809;48.632;11.576;2022-07-05T09:01:03;2.00;;;1.90;;
26034;SDS011;13809;48.632;11.576;2022-07-05T09:06:07;1.97;;;1.70;;
26034;SDS011;13809;48.632;11.576;2022-07-05T09:11:12;1.97;;;1.70;;
26034;SDS011;13809;48.632;11.576;2022-07-05T09:16:18;1.90;;;1.80;;
26034;SDS011;13809;48.632;11.576;2022-07-05T09:21:22;1.73;;;1.60;;
26034;SDS011;13809;48.632;11.576;2022-07-05T09:26:27;1.60;;;1.50;;
26034;SDS011;13809;48.632;11.576;2022-07-05T09:31:36;1.90;;;1.80;;
26034;SDS011;13809;48.632;11.576;2022-07-05T09:36:47;1.27;;;1.27;;
26034;SDS011;13809;48.632;11.576;2022-07-05T09:42:07;1.73;;;1.63;;
26034;SDS011;13809;48.632;11.576;2022-07-05T09:47:16;2.73;;;1.60;;
26034;SDS011;13809;48.632;11.576;2022-07-05T09:52:26;2.80;;;1.57;;
26034;SDS011;13809;48.632;11.576;2022-07-05T09:57:31;3.07;;;1.60;;
26034;SDS011;13809;48.632;11.576;2022-07-05T10:02:39;1.70;;;1.20;;
26034;SDS011;13809;48.632;11.576;2022-07-05T10:07:43;1.50;;;1.40;;
26034;SDS011;13809;48.632;11.576;2022-07-05T10:12:49;1.80;;;1.47;;
26034;SDS011;13809;48.632;11.576;2022-07-05T10:17:56;1.53;;;1.30;;
26034;SDS011;13809;48.632;11.576;2022-07-05T10:23:05;1.20;;;1.20;;
26034;SDS011;13809;48.632;11.576;2022-07-05T10:28:10;1.40;;;1.30;;
26034;SDS011;13809;48.632;11.576;2022-07-05T10:33:15;1.50;;;1.40;;
26034;SDS011;13809;48.632;11.576;2022-07-05T10:38:22;1.33;;;1.23;;
26034;SDS011;13809;48.632;11.576;2022-07-05T10:43:25;1.63;;;1.30;;
26034;SDS011;13809;48.632;11.576;2022-07-05T10:48:31;1.57;;;1.20;;
26034;SDS011;13809;48.632;11.576;2022-07-05T10:59:08;1.90;;;1.30;;
26034;SDS011;13809;48.632;11.576;2022-07-05T11:04:23;1.27;;;1.17;;
26034;SDS011;13809;48.632;11.576;2022-07-05T11:09:37;1.30;;;1.20;;
26034;SDS011;13809;48.632;11.576;2022-07-05T11:15:04;1.40;;;1.30;;
26034;SDS011;13809;48.632;11.576;2022-07-05T11:20:14;1.13;;;1.13;;
26034;SDS011;13809;48.632;11.576;2022-07-05T11:25:21;1.53;;;1.10;;
26034;SDS011;13809;48.632;11.576;2022-07-05T11:30:25;2.23;;;1.20;;
26034;SDS011;13809;48.632;11.576;2022-07-05T11:35:31;1.63;;;1.30;;
26034;SDS011;13809;48.632;11.576;2022-07-05T11:40:36;1.50;;;1.20;;
26034;SDS011;13809;48.632;11.576;2022-07-05T11:45:39;1.30;;;1.20;;
26034;SDS011;13809;48.632;11.576;2022-07-05T11:50:44;1.57;;;1.20;;
26034;SDS011;13809;48.632;11.576;2022-07-05T11:55:50;1.20;;;1.20;;
26034;SDS011;13809;48.632;11.576;2022-07-05T12:00:57;1.97;;;1.23;;
26034;SDS011;13809;48.632;11.576;2022-07-05T12:06:12;1.43;;;1.33;;
26034;SDS011;13809;48.632;11.576;2022-07-05T12:11:17;2.50;;;1.20;;
26034;SDS011;13809;48.632;11.576;2022-07-05T12:16:38;1.90;;;1.27;;
26034;SDS011;13809;48.632;11.576;2022-07-05T12:21:44;1.60;;;1.50;;
26034;SDS011;13809;48.632;11.576;2022-07-05T12:26:55;1.27;;;1.10;;
26034;SDS011;13809;48.632;11.576;2022-07-05T12:31:59;1.40;;;1.30;;
26034;SDS011;13809;48.632;11.576;2022-07-05T12:37:05;1.27;;;1.20;;
26034;SDS011;13809;48.632;11.576;2022-07-05T12:42:08;1.17;;;1.17;;
26034;SDS011;13809;48.632;11.576;2022-07-05T12:47:12;1.20;;;1.20;;
26034;SDS011;13809;48.632;11.576;2022-07-05T12:52:16;1.90;;;1.23;;
26034;SDS011;13809;48.632;11.576;2022-07-05T12:57:19;1.33;;;1.20;;
26034;SDS011;13809;48.632;11.576;2022-07-05T13:02:49;1.83;;;1.20;;
26034;SDS011;13809;48.632;11.576;2022-07-05T13:07:53;1.30;;;1.20;;
26034;SDS011;13809;48.632;11.576;2022-07-05T13:12:57;1.10;;;1.10;;
26034;SDS011;13809;48.632;11.576;2022-07-05T13:18:00;4.20;;;1.40;;
26034;SDS011;13809;48.632;11.576;2022-07-05T13:23:05;1.27;;;1.17;;
26034;SDS011;13809;48.632;11.576;2022-07-05T13:28:08;3.00;;;1.50;;
26034;SDS011;13809;48.632;11.576;2022-07-05T13:33:12;1.10;;;1.10;;
26034;SDS011;13809;48.632;11.576;2022-07-05T13:38:16;1.30;;;1.20;;
26034;SDS011;13809;48.632;11.576;2022-07-05T13:43:19;1.27;;;1.27;;
26034;SDS011;13809;48.632;11.576;2022-07-05T13:48:23;1.53;;;1.20;;
26034;SDS011;13809;48.632;11.576;2022-07-05T13:53:27;2.97;;;1.20;;
26034;SDS011;13809;48.632;11.576;2022-07-05T13:58:30;1.70;;;1.13;;
26034;SDS011;13809;48.632;11.576;2022-07-05T14:03:33;2.00;;;1.20;;
26034;SDS011;13809;48.632;11.576;2022-07-05T14:08:38;1.30;;;1.20;;
26034;SDS011;13809;48.632;11.576;2022-07-05T14:13:43;1.00;;;1.00;;
26034;SDS011;13809;48.632;11.576;2022-07-05T14:18:46;1.03;;;1.03;;
26034;SDS011;13809;48.632;11.576;2022-07-05T14:23:52;1.30;;;1.10;;
26034;SDS011;13809;48.632;11.576;2022-07-05T14:28:55;1.17;;;1.17;;
26034;SDS011;13809;48.632;11.576;2022-07-05T14:33:58;1.33;;;1.23;;
26034;SDS011;13809;48.632;11.576;2022-07-05T14:39:03;2.10;;;1.20;;
26034;SDS011;13809;48.632;11.576;2022-07-05T14:44:06;1.20;;;1.10;;
26034;SDS011;13809;48.632;11.576;2022-07-05T14:49:09;0.90;;;0.90;;
26034;SDS011;13809;48.632;11.576;2022-07-05T14:54:14;1.20;;;1.10;;
26034;SDS011;13809;48.632;11.576;2022-07-05T14:59:17;1.20;;;1.10;;
26034;SDS011;13809;48.632;11.576;2022-07-05T15:04:20;1.43;;;1.00;;
26034;SDS011;13809;48.632;11.576;2022-07-05T15:09:25;1.23;;;1.00;;
26034;SDS011;13809;48.632;11.576;2022-07-05T15:14:28;1.23;;;1.17;;
26034;SDS011;13809;48.632;11.576;2022-07-05T15:19:31;1.60;;;1.17;;
26034;SDS011;13809;48.632;11.576;2022-07-05T15:24:36;1.30;;;1.20;;
26034;SDS011;13809;48.632;11.576;2022-07-05T15:29:39;3.30;;;1.10;;
26034;SDS011;13809;48.632;11.576;2022-07-05T15:34:43;1.10;;;1.10;;
26034;SDS011;13809;48.632;11.576;2022-07-05T15:39:47;1.40;;;1.20;;
26034;SDS011;13809;48.632;11.576;2022-07-05T15:44:50;1.10;;;1.10;;
26034;SDS011;13809;48.632;11.576;2022-07-05T15:50:03;1.00;;;1.00;;
26034;SDS011;13809;48.632;11.576;2022-07-05T15:55:09;1.43;;;1.20;;
26034;SDS011;13809;48.632;11.576;2022-07-05T16:00:13;1.07;;;1.00;;
26034;SDS011;13809;48.632;11.576;2022-07-05T16:05:17;1.00;;;1.00;;
26034;SDS011;13809;48.632;11.576;2022-07-05T16:10:21;1.67;;;1.10;;
26034;SDS011;13809;48.632;11.576;2022-07-05T16:15:36;1.07;;;1.00;;
26034;SDS011;13809;48.632;11.576;2022-07-05T16:20:57;1.57;;;1.00;;
26034;SDS011;13809;48.632;11.576;2022-07-05T16:26:11;1.27;;;1.00;;
26034;SDS011;13809;48.632;11.576;2022-07-05T16:31:15;1.10;;;1.00;;
26034;SDS011;13809;48.632;11.576;2022-07-05T16:36:20;1.30;;;1.20;;
26034;SDS011;13809;48.632;11.576;2022-07-05T16:41:25;1.17;;;1.10;;
26034;SDS011;13809;48.632;11.576;2022-07-05T16:46:29;1.00;;;1.00;;
26034;SDS011;13809;48.632;11.576;2022-07-05T16:51:33;1.60;;;1.10;;
26034;SDS011;13809;48.632;11.576;2022-07-05T16:56:38;2.50;;;0.90;;
26034;SDS011;13809;48.632;11.576;2022-07-05T17:01:41;1.10;;;1.10;;
26034;SDS011;13809;48.632;11.576;2022-07-05T17:06:44;1.53;;;1.10;;
26034;SDS011;13809;48.632;11.576;2022-07-05T17:11:49;1.10;;;1.00;;
26034;SDS011;13809;48.632;11.576;2022-07-05T17:16:52;1.20;;;1.10;;
26034;SDS011;13809;48.632;11.576;2022-07-05T17:21:55;1.17;;;1.07;;
26034;SDS011;13809;48.632;11.576;2022-07-05T17:27:00;0.97;;;0.97;;
26034;SDS011;13809;48.632;11.576;2022-07-05T17:32:04;0.97;;;0.97;;
26034;SDS011;13809;48.632;11.576;2022-07-05T17:37:07;0.80;;;0.80;;
26034;SDS011;13809;48.632;11.576;2022-07-05T17:42:12;1.77;;;1.20;;
26034;SDS011;13809;48.632;11.576;2022-07-05T17:47:15;1.23;;;1.20;;
26034;SDS011;13809;48.632;11.576;2022-07-05T17:52:19;1.20;;;1.10;;
26034;SDS011;13809;48.632;11.576;2022-07-05T17:57:23;1.00;;;1.00;;
26034;SDS011;13809;48.632;11.576;2022-07-05T18:02:27;1.97;;;1.13;;
26034;SDS011;13809;48.632;11.576;2022-07-05T18:07:30;1.20;;;1.10;;
26034;SDS011;13809;48.632;11.576;2022-07-05T18:12:34;1.13;;;1.00;;
26034;SDS011;13809;48.632;11.576;2022-07-05T18:17:38;1.20;;;1.10;;
26034;SDS011;13809;48.632;11.576;2022-07-05T18:22:41;1.00;;;1.00;;
26034;SDS011;13809;48.632;11.576;2022-07-05T18:27:46;1.20;;;1.10;;
26034;SDS011;13809;48.632;11.576;2022-07-05T18:32:49;0.83;;;0.83;;
26034;SDS011;13809;48.632;11.576;2022-07-05T18:37:52;2.00;;;1.30;;
26034;SDS011;13809;48.632;11.576;2022-07-05T18:42:57;0.97;;;0.97;;
26034;SDS011;13809;48.632;11.576;2022-07-05T18:48:00;1.23;;;1.13;;
26034;SDS011;13809;48.632;11.576;2022-07-05T18:53:03;1.50;;;1.03;;
26034;SDS011;13809;48.632;11.576;2022-07-05T18:58:08;1.60;;;1.20;;
26034;SDS011;13809;48.632;11.576;2022-07-05T19:03:12;1.37;;;1.20;;
26034;SDS011;13809;48.632;11.576;2022-07-05T19:08:15;1.23;;;1.13;;
26034;SDS011;13809;48.632;11.576;2022-07-05T19:13:37;2.53;;;1.23;;
26034;SDS011;13809;48.632;11.576;2022-07-05T19:18:43;1.00;;;1.00;;
26034;SDS011;13809;48.632;11.576;2022-07-05T19:23:46;1.53;;;1.10;;
26034;SDS011;13809;48.632;11.576;2022-07-05T19:28:51;1.40;;;1.30;;
26034;SDS011;13809;48.632;11.576;2022-07-05T19:33:54;1.03;;;1.03;;
26034;SDS011;13809;48.632;11.576;2022-07-05T19:38:57;1.13;;;1.07;;
26034;SDS011;13809;48.632;11.576;2022-07-05T19:44:02;2.03;;;1.30;;
26034;SDS011;13809;48.632;11.576;2022-07-05T19:49:08;1.33;;;1.20;;
26034;SDS011;13809;48.632;11.576;2022-07-05T19:54:11;1.20;;;1.10;;
26034;SDS011;13809;48.632;11.576;2022-07-05T19:59:17;1.70;;;1.40;;
26034;SDS011;13809;48.632;11.576;2022-07-05T20:04:20;1.33;;;1.20;;
26034;SDS011;13809;48.632;11.576;2022-07-05T20:09:24;1.10;;;1.10;;
26034;SDS011;13809;48.632;11.576;2022-07-05T20:14:28;4.80;;;1.60;;
26034;SDS011;13809;48.632;11.576;2022-07-05T20:19:32;2.93;;;1.30;;
26034;SDS011;13809;48.632;11.576;2022-07-05T20:24:35;1.43;;;1.10;;
26034;SDS011;13809;48.632;11.576;2022-07-05T20:29:40;1.40;;;1.30;;
26034;SDS011;13809;48.632;11.576;2022-07-05T20:34:44;1.40;;;1.30;;
26034;SDS011;13809;48.632;11.576;2022-07-05T20:39:47;1.30;;;1.20;;
26034;SDS011;13809;48.632;11.576;2022-07-05T20:44:52;1.07;;;1.07;;
26034;SDS011;13809;48.632;11.576;2022-07-05T20:49:56;2.17;;;1.40;;
26034;SDS011;13809;48.632;11.576;2022-07-05T20:54:59;3.27;;;1.30;;
26034;SDS011;13809;48.632;11.576;2022-07-05T21:00:07;2.07;;;1.30;;
26034;SDS011;13809;48.632;11.576;2022-07-05T21:05:10;2.10;;;1.20;;
26034;SDS011;13809;48.632;11.576;2022-07-05T21:10:15;5.83;;;1.43;;
26034;SDS011;13809;48.632;11.576;2022-07-05T21:15:21;3.07;;;1.10;;
26034;SDS011;13809;48.632;11.576;2022-07-05T21:20:24;1.73;;;1.30;;
26034;SDS011;13809;48.632;11.576;2022-07-05T21:25:28;1.77;;;1.30;;
26034;SDS011;13809;48.632;11.576;2022-07-05T21:30:33;1.23;;;1.13;;
26034;SDS011;13809;48.632;11.576;2022-07-05T21:35:36;1.40;;;1.30;;
26034;SDS011;13809;48.632;11.576;2022-07-05T21:40:40;1.40;;;1.30;;
26034;SDS011;13809;48.632;11.576;2022-07-05T21:45:45;1.30;;;1.20;;
26034;SDS011;13809;48.632;11.576;2022-07-05T21:50:48;1.30;;;1.20;;
26034;SDS011;13809;48.632;11.576;2022-07-05T21:55:51;1.40;;;1.30;;
26034;SDS011;13809;48.632;11.576;2022-07-05T22:00:56;1.67;;;1.20;;
26034;SDS011;13809;48.632;11.576;2022-07-05T22:06:16;1.30;;;1.20;;
26034;SDS011;13809;48.632;11.576;2022-07-05T22:11:20;2.60;;;1.63;;
26034;SDS011;13809;48.632;11.576;2022-07-05T22:16:39;1.50;;;1.40;;
26034;SDS011;13809;48.632;11.576;2022-07-05T22:21:43;1.83;;;1.37;;
26034;SDS011;13809;48.632;11.576;2022-07-05T22:26:46;1.50;;;1.40;;
26034;SDS011;13809;48.632;11.576;2022-07-05T22:31:51;1.47;;;1.37;;
26034;SDS011;13809;48.632;11.576;2022-07-05T22:36:54;1.37;;;1.20;;
26034;SDS011;13809;48.632;11.576;2022-07-05T22:41:57;1.53;;;1.33;;
26034;SDS011;13809;48.632;11.576;2022-07-05T22:47:02;1.63;;;1.23;;
26034;SDS011;13809;48.632;11.576;2022-07-05T22:52:06;1.57;;;1.47;;
26034;SDS011;13809;48.632;11.576;2022-07-05T22:57:09;1.30;;;1.20;;
26034;SDS011;13809;48.632;11.576;2022-07-05T23:02:13;1.10;;;1.10;;
26034;SDS011;13809;48.632;11.576;2022-07-05T23:07:17;4.00;;;1.60;;
26034;SDS011;13809;48.632;11.576;2022-07-05T23:12:20;1.80;;;1.63;;
26034;SDS011;13809;48.632;11.576;2022-07-05T23:17:24;1.60;;;1.50;;
26034;SDS011;13809;48.632;11.576;2022-07-05T23:22:28;2.03;;;1.60;;
26034;SDS011;13809;48.632;11.576;2022-07-05T23:27:32;2.30;;;1.50;;
26034;SDS011;13809;48.632;11.576;2022-07-05T23:32:37;1.60;;;1.50;;
26034;SDS011;13809;48.632;11.576;2022-07-05T23:37:41;1.60;;;1.50;;
26034;SDS011;13809;48.632;11.576;2022-07-05T23:42:44;1.60;;;1.50;;
26034;SDS011;13809;48.632;11.576;2022-07-05T23:47:48;2.17;;;1.70;;
26034;SDS011;13809;48.632;11.576;2022-07-05T23:52:52;2.07;;;1.70;;
26034;SDS011;13809;48.632;11.576;2022-07-05T23:57:55;2.27;;;1.50;;
